Time;durP1;ratioP1;P1;durP2;ratioP2;P2;SDS_P1;SDS_P2;PMS_P1;PMS_P2;Temp;Humidity;BMP_temperature;BMP_pressure;BME280_temperature;BME280_humidity;BME280_pressure;Samples;Min_cycle;Max_cycle;Signal;HPM_P1;HPM_P2
2023/06/11 00:01:45;;;;;;;;;28.40;28.40;;;;;21.15;50.81;98725.38;5086934;28;9476;-77
2023/06/11 00:04:27;;;;;;;;;27.00;26.40;;;;;21.16;50.53;98729.75;5088350;28;8861;-75
2023/06/11 00:06:57;;;;;;;;;32.00;30.00;;;;;21.09;51.11;98732.06;5087255;28;8892;-77
2023/06/11 00:09:27;;;;;;;;;30.20;29.40;;;;;21.09;50.93;98733.84;5087281;28;8923;-77
2023/06/11 00:11:56;;;;;;;;;36.00;32.20;;;;;21.09;51.26;98741.88;5087758;28;8857;-77
2023/06/11 00:14:25;;;;;;;;;30.60;29.80;;;;;21.10;51.02;98732.91;5070429;28;8873;-78
2023/06/11 00:16:56;;;;;;;;;34.40;32.00;;;;;21.01;51.24;98735.31;5052091;28;9594;-78
2023/06/11 00:19:28;;;;;;;;;27.00;24.80;;;;;20.82;51.46;98735.88;5086820;28;8877;-77
2023/06/11 00:21:59;;;;;;;;;29.40;28.60;;;;;20.82;51.61;98741.22;5087030;28;8860;-76
2023/06/11 00:24:30;;;;;;;;;29.80;27.80;;;;;20.85;51.74;98738.28;5070509;28;8870;-77
2023/06/11 00:27:01;;;;;;;;;31.40;28.40;;;;;20.87;51.54;98740.84;5070319;28;8854;-77
2023/06/11 00:29:30;;;;;;;;;33.60;30.20;;;;;20.87;51.48;98749.69;5088259;28;8855;-75
2023/06/11 00:31:59;;;;;;;;;31.40;27.80;;;;;20.72;52.08;98748.19;5075477;28;8843;-76
2023/06/11 00:34:28;;;;;;;;;29.40;28.20;;;;;20.73;51.89;98746.38;5069428;28;8858;-78
2023/06/11 00:36:57;;;;;;;;;29.60;28.60;;;;;20.69;51.91;98748.44;5069361;28;9678;-81
2023/06/11 00:39:26;;;;;;;;;26.00;26.00;;;;;20.67;51.79;98753.03;5033775;28;8892;-77
2023/06/11 00:41:58;;;;;;;;;36.60;31.80;;;;;20.70;52.07;98749.28;5068204;28;8963;-77
2023/06/11 00:44:29;;;;;;;;;30.60;29.40;;;;;20.70;51.88;98754.63;5101740;28;8865;-76
2023/06/11 00:46:59;;;;;;;;;28.60;28.40;;;;;20.72;52.07;98752.69;5113290;27;8847;-77
2023/06/11 00:49:29;;;;;;;;;29.60;26.60;;;;;20.73;51.79;98757.06;5089014;28;8932;-77
2023/06/11 00:51:59;;;;;;;;;27.40;27.40;;;;;20.75;51.78;98757.81;5086174;28;8977;-77
2023/06/11 00:54:28;;;;;;;;;30.20;29.60;;;;;20.66;52.03;98754.84;5056858;28;9714;-77
2023/06/11 00:56:58;;;;;;;;;28.00;28.00;;;;;20.63;52.36;98759.56;5016023;28;8861;-76
2023/06/11 00:59:27;;;;;;;;;27.20;26.00;;;;;20.66;52.18;98765.53;5015906;28;8958;-77
2023/06/11 01:02:05;;;;;;;;;29.20;28.60;;;;;20.68;51.87;98760.94;5076682;28;8847;-76
2023/06/11 01:04:36;;;;;;;;;24.40;24.40;;;;;20.67;51.87;98758.38;5102600;28;8965;-77
2023/06/11 01:07:08;;;;;;;;;24.40;24.00;;;;;20.68;51.77;98755.59;5103026;28;8889;-77
2023/06/11 01:09:40;;;;;;;;;32.00;31.00;;;;;20.69;51.92;98748.44;5069245;28;9064;-77
2023/06/11 01:12:12;;;;;;;;;27.80;27.40;;;;;20.73;52.24;98747.25;5102951;28;8875;-77
2023/06/11 01:14:42;;;;;;;;;28.40;28.00;;;;;20.74;51.57;98740.91;5053397;28;8829;-78
2023/06/11 01:17:17;;;;;;;;;34.60;32.00;;;;;20.71;52.10;98741.16;5059420;28;8878;-78
2023/06/11 01:20:02;;;;;;;;;25.60;23.60;;;;;20.80;51.90;98743.16;5102790;28;8851;-77
2023/06/11 01:22:41;;;;;;;;;28.00;27.20;;;;;20.74;51.73;98743.59;5058074;28;8873;-78
2023/06/11 01:25:18;;;;;;;;;27.40;26.40;;;;;20.79;52.05;98733.41;5085935;28;8860;-77
2023/06/11 01:28:02;;;;;;;;;22.40;22.20;;;;;20.86;51.72;98739.16;5086697;28;9025;-78
2023/06/11 01:30:35;;;;;;;;;31.60;28.60;;;;;20.75;51.69;98733.78;5085016;28;8929;-76
2023/06/11 01:33:05;;;;;;;;;26.60;26.00;;;;;20.71;51.77;98743.84;5087110;28;8962;-77
2023/06/11 01:35:39;;;;;;;;;27.40;27.00;;;;;20.71;51.51;98741.16;5091214;28;8848;-77
2023/06/11 01:38:09;;;;;;;;;25.40;23.60;;;;;20.70;51.69;98743.94;5133122;27;8855;-79
2023/06/11 01:40:42;;;;;;;;;25.20;25.20;;;;;20.70;51.89;98747.47;5103465;28;8921;-76
2023/06/11 01:43:13;;;;;;;;;26.00;26.00;;;;;20.69;51.67;98743.13;5050004;28;8862;-77
2023/06/11 01:45:43;;;;;;;;;28.40;28.40;;;;;20.67;51.71;98750.34;5102839;27;8847;-76
2023/06/11 01:48:12;;;;;;;;;25.80;24.20;;;;;20.66;51.86;98746.00;5067525;28;8865;-78
2023/06/11 01:50:42;;;;;;;;;22.60;22.20;;;;;20.63;51.97;98749.78;5083314;28;8885;-78
2023/06/11 01:53:12;;;;;;;;;23.00;23.00;;;;;20.59;52.14;98748.28;5066118;28;9012;-78
2023/06/11 01:55:42;;;;;;;;;24.60;24.60;;;;;20.54;51.87;98746.91;5099862;28;8868;-77
2023/06/11 01:58:13;;;;;;;;;24.80;23.80;;;;;20.43;52.23;98756.59;5100330;28;8985;-76
2023/06/11 02:00:42;;;;;;;;;27.80;25.20;;;;;20.28;52.88;98761.25;5071066;28;8836;-77
2023/06/11 02:03:11;;;;;;;;;27.80;24.80;;;;;20.34;52.92;98756.44;5087551;28;8847;-77
2023/06/11 02:05:40;;;;;;;;;25.00;23.00;;;;;20.40;52.43;98750.63;5067525;28;8906;-77
2023/06/11 02:08:09;;;;;;;;;20.80;20.20;;;;;20.44;52.35;98758.31;5067199;28;8854;-76
2023/06/11 02:10:38;;;;;;;;;21.20;21.00;;;;;20.46;52.71;98761.72;5100135;28;8862;-77
2023/06/11 02:13:06;;;;;;;;;22.80;21.40;;;;;20.48;52.21;98754.44;5067682;28;8866;-77
2023/06/11 02:15:37;;;;;;;;;23.20;21.40;;;;;20.56;52.55;98753.84;5046451;28;8828;-76
2023/06/11 02:18:06;;;;;;;;;26.60;22.20;;;;;20.58;52.07;98751.09;5066775;28;8885;-76
2023/06/11 02:20:36;;;;;;;;;19.80;19.60;;;;;20.62;52.04;98760.56;5064723;28;8936;-79
2023/06/11 02:23:04;;;;;;;;;19.80;19.20;;;;;20.63;51.93;98760.44;5064691;28;8860;-77
2023/06/11 02:25:34;;;;;;;;;19.40;19.20;;;;;20.62;51.90;98753.38;5031605;28;9711;-77
2023/06/11 02:28:05;;;;;;;;;23.20;22.60;;;;;20.70;52.18;98754.63;5049585;28;8870;-76
2023/06/11 02:30:35;;;;;;;;;20.60;20.20;;;;;20.67;52.01;98747.69;5064345;28;9572;-77
2023/06/11 02:33:05;;;;;;;;;22.60;22.00;;;;;20.74;51.58;98745.41;5064290;28;8871;-77
2023/06/11 02:35:36;;;;;;;;;20.00;20.00;;;;;20.75;52.04;98742.63;5081207;28;8894;-75
2023/06/11 02:38:07;;;;;;;;;23.80;21.20;;;;;20.78;51.62;98741.53;5083718;28;8871;-77
2023/06/11 02:40:36;;;;;;;;;21.40;20.60;;;;;20.83;51.51;98747.38;5088482;28;8867;-77
2023/06/11 02:43:04;;;;;;;;;21.40;20.80;;;;;20.86;51.29;98744.50;5038237;28;8886;-78
2023/06/11 02:45:34;;;;;;;;;22.20;21.80;;;;;20.86;51.54;98745.34;5087807;28;8856;-77
2023/06/11 02:48:05;;;;;;;;;24.40;20.60;;;;;20.84;51.47;98746.41;5070712;28;8835;-76
2023/06/11 02:50:34;;;;;;;;;20.00;18.80;;;;;20.82;51.10;98741.22;5037327;28;8860;-77
2023/06/11 02:53:02;;;;;;;;;2.20;2.00;;;;;20.84;51.42;98749.06;5090149;28;8894;-77
2023/06/11 02:55:31;;;;;;;;;19.00;18.20;;;;;20.86;51.46;98747.16;5091535;28;8848;-77
2023/06/11 02:58:00;;;;;;;;;18.40;17.40;;;;;20.88;51.07;98743.41;5091491;28;8844;-77
2023/06/11 03:00:29;;;;;;;;;21.80;20.20;;;;;20.86;51.33;98733.81;5053162;28;9472;-78
2023/06/11 03:02:58;;;;;;;;;18.80;18.80;;;;;20.86;51.45;98739.16;5085800;28;9736;-77
2023/06/11 03:05:34;;;;;;;;;21.60;21.00;;;;;20.87;51.25;98747.03;5103889;28;8838;-77
2023/06/11 03:08:03;;;;;;;;;19.40;17.80;;;;;20.87;50.93;98731.00;5071775;28;8874;-76
2023/06/11 03:10:32;;;;;;;;;20.20;19.20;;;;;20.87;51.24;98739.00;5088389;28;8900;-76
2023/06/11 03:13:01;;;;;;;;;17.20;17.20;;;;;20.93;51.20;98743.06;5054707;28;8846;-78
2023/06/11 03:15:30;;;;;;;;;18.40;18.20;;;;;20.97;51.10;98752.53;5074637;28;8844;-77
2023/06/11 03:17:59;;;;;;;;;16.00;16.00;;;;;21.03;50.95;98741.41;5039376;28;8884;-77
2023/06/11 03:20:28;;;;;;;;;14.60;13.00;;;;;21.07;51.10;98734.00;5071734;28;9658;-77
2023/06/11 03:22:58;;;;;;;;;18.60;18.60;;;;;20.95;51.80;98741.13;5114934;28;9780;-75
2023/06/11 03:25:27;;;;;;;;;18.60;18.60;;;;;20.96;51.60;98750.84;5093969;28;8896;-77
2023/06/11 03:27:56;;;;;;;;;18.20;17.80;;;;;21.00;51.36;98749.66;5071874;28;8861;-76
2023/06/11 03:30:25;;;;;;;;;22.20;20.00;;;;;20.92;51.68;98752.06;5073277;28;9077;-77
2023/06/11 03:32:54;;;;;;;;;19.00;19.00;;;;;20.82;51.96;98759.03;5089691;28;8884;-77
2023/06/11 03:35:23;;;;;;;;;19.20;17.60;;;;;20.78;52.01;98758.41;5067441;28;8818;-76
2023/06/11 03:37:51;;;;;;;;;17.60;17.60;;;;;20.89;52.34;98762.94;5050689;28;8881;-76
2023/06/11 03:40:26;;;;;;;;;13.60;11.40;;;;;21.08;51.94;98769.59;5067627;28;9642;-77
2023/06/11 03:42:56;;;;;;;;;37.00;33.25;;;;;21.19;51.03;98759.75;5075506;28;8844;-77
2023/06/11 03:45:29;;;;;;;;;30.60;28.60;;;;;21.32;51.01;98765.00;5070064;28;8843;-77
2023/06/11 03:47:58;;;;;;;;;30.80;29.80;;;;;21.42;50.79;98768.66;5050394;28;8999;-77
2023/06/11 03:50:27;;;;;;;;;22.00;20.80;;;;;21.52;50.39;98765.25;5067470;28;8844;-77
2023/06/11 03:52:55;;;;;;;;;17.20;16.40;;;;;21.60;50.32;98770.91;5067580;28;8882;-78
2023/06/11 03:55:26;;;;;;;;;18.20;17.20;;;;;21.63;50.06;98770.63;5051293;28;8836;-77
2023/06/11 03:57:55;;;;;;;;;14.00;13.20;;;;;21.68;49.68;98770.28;5050951;28;9602;-76
2023/06/11 04:00:24;;;;;;;;;18.80;18.80;;;;;21.77;49.68;98775.75;5052542;28;8874;-76
2023/06/11 04:02:53;;;;;;;;;18.20;17.40;;;;;21.80;49.36;98777.31;5051694;28;8864;-77
2023/06/11 04:05:28;;;;;;;;;19.00;19.00;;;;;21.58;50.13;98772.81;5050615;28;8963;-79
2023/06/11 04:07:58;;;;;;;;;23.20;21.00;;;;;21.44;50.37;98766.69;5050827;28;8893;-77
2023/06/11 04:10:29;;;;;;;;;17.20;16.20;;;;;21.48;50.86;98772.66;5017527;28;8864;-77
2023/06/11 04:12:57;;;;;;;;;19.60;19.20;;;;;21.61;50.77;98773.41;5083726;28;8867;-79
2023/06/11 04:15:27;;;;;;;;;19.40;19.00;;;;;21.61;50.77;98776.09;5019701;28;8845;-77
2023/06/11 04:17:57;;;;;;;;;21.40;20.60;;;;;21.78;50.71;98768.56;5083806;28;8832;-79
2023/06/11 04:20:27;;;;;;;;;20.00;19.60;;;;;21.92;50.45;98771.00;5083517;28;8887;-77
2023/06/11 04:22:56;;;;;;;;;22.00;19.80;;;;;21.50;51.24;98769.88;5068053;28;8888;-78
2023/06/11 04:25:25;;;;;;;;;19.20;18.60;;;;;21.30;51.99;98771.44;5101314;28;8866;-77
2023/06/11 04:27:57;;;;;;;;;51.75;43.00;;;;;21.44;51.95;98772.03;5095876;28;9664;-78
2023/06/11 04:30:27;;;;;;;;;22.40;22.00;;;;;21.05;52.71;98771.53;5051809;28;8843;-78
2023/06/11 04:32:56;;;;;;;;;22.20;22.20;;;;;21.28;52.46;98766.22;5084909;28;8862;-78
2023/06/11 04:35:28;;;;;;;;;22.60;20.80;;;;;21.02;53.50;98771.75;5084888;28;8872;-79
2023/06/11 04:37:57;;;;;;;;;17.60;16.60;;;;;21.25;52.53;98771.78;5069035;28;8934;-77
2023/06/11 04:40:28;;;;;;;;;23.20;23.20;;;;;21.36;52.32;98770.97;5101312;28;8974;-78
2023/06/11 04:42:58;;;;;;;;;24.00;22.80;;;;;21.56;52.40;98772.06;5068630;28;8955;-77
2023/06/11 04:45:28;;;;;;;;;47.25;39.50;;;;;21.73;51.89;98776.09;5069651;28;8960;-79
2023/06/11 04:47:58;;;;;;;;;26.60;26.60;;;;;21.69;51.76;98774.63;5067784;28;8963;-76
2023/06/11 04:50:28;;;;;;;;;28.20;28.20;;;;;21.89;51.52;98781.09;5101534;28;8846;-77
2023/06/11 04:53:01;;;;;;;;;46.75;40.50;;;;;22.03;51.08;98773.66;5101305;28;9691;-78
2023/06/11 04:55:32;;;;;;;;;32.25;30.50;;;;;21.50;52.14;98785.91;5050639;28;8958;-77
2023/06/11 04:58:03;;;;;;;;;29.80;29.40;;;;;21.62;52.49;98776.97;5101928;28;8869;-77
2023/06/11 05:00:33;;;;;;;;;54.00;45.00;;;;;21.86;51.80;98784.00;5085024;28;8888;-77
2023/06/11 05:03:04;;;;;;;;;53.50;44.00;;;;;21.56;52.97;98778.28;5100767;28;8888;-76
2023/06/11 05:05:35;;;;;;;;;57.00;45.67;;;;;21.82;52.12;98786.06;5067612;28;8865;-77
2023/06/11 05:08:06;;;;;;;;;54.50;44.50;;;;;22.14;51.48;98775.44;5051665;28;8850;-76
2023/06/11 05:10:37;;;;;;;;;52.25;43.75;;;;;22.47;50.55;98781.72;5082629;28;8843;-76
2023/06/11 05:13:08;;;;;;;;;51.75;44.00;;;;;22.65;50.13;98787.34;5084977;28;8858;-78
2023/06/11 05:15:38;;;;;;;;;59.25;47.50;;;;;22.74;49.90;98786.59;5104092;27;8852;-78
2023/06/11 05:18:07;;;;;;;;;56.75;47.00;;;;;22.80;49.87;98790.59;5100424;28;8969;-77
2023/06/11 05:20:36;;;;;;;;;37.00;33.00;;;;;22.95;49.43;98792.00;5101324;28;8894;-76
2023/06/11 05:23:05;;;;;;;;;26.40;26.00;;;;;23.14;49.11;98779.72;5067441;28;8850;-76
2023/06/11 05:25:36;;;;;;;;;33.25;32.00;;;;;23.29;48.76;98782.91;5084083;28;8858;-76
2023/06/11 05:28:08;;;;;;;;;58.25;48.00;;;;;23.31;48.63;98792.50;5100531;28;9608;-77
2023/06/11 05:30:39;;;;;;;;;50.75;43.00;;;;;23.19;48.66;98788.22;5066502;28;9016;-76
2023/06/11 05:33:10;;;;;;;;;31.40;30.20;;;;;23.19;48.73;98786.38;5083806;28;8855;-76
2023/06/11 05:35:40;;;;;;;;;43.25;36.25;;;;;22.39;50.70;98790.38;5066550;28;9072;-79
2023/06/11 05:38:10;;;;;;;;;51.25;42.50;;;;;21.41;53.73;98784.84;5049019;28;8940;-78
2023/06/11 05:40:42;;;;;;;;;33.50;30.50;;;;;21.39;53.62;98790.28;5064578;28;8847;-75
2023/06/11 05:43:12;;;;;;;;;59.50;48.00;;;;;21.94;52.60;98798.47;5048483;28;9000;-78
2023/06/11 05:45:48;;;;;;;;;34.40;30.40;;;;;22.39;51.75;98795.75;5061461;28;8959;-76
2023/06/11 05:48:20;;;;;;;;;21.60;20.80;;;;;21.82;51.95;98788.75;5081588;28;8985;-76
2023/06/11 05:50:49;;;;;;;;;21.40;21.40;;;;;21.26;53.50;98793.06;5081448;28;8966;-76
2023/06/11 05:53:18;;;;;;;;;19.80;19.40;;;;;20.87;55.32;98791.59;5047981;28;8879;-77
2023/06/11 05:55:48;;;;;;;;;20.20;19.80;;;;;21.71;52.84;98786.94;5046600;28;8963;-78
2023/06/11 05:58:19;;;;;;;;;13.00;11.60;;;;;22.27;50.97;98783.34;5064399;28;8894;-75
2023/06/11 06:00:48;;;;;;;;;23.80;23.20;;;;;22.69;49.33;98790.63;5011716;28;8842;-75
2023/06/11 06:03:17;;;;;;;;;19.60;19.20;;;;;22.87;49.16;98789.09;5063747;28;8859;-75
2023/06/11 06:05:46;;;;;;;;;20.40;20.40;;;;;23.15;48.24;98782.25;5077295;28;8856;-74
2023/06/11 06:08:15;;;;;;;;;24.20;23.80;;;;;23.50;48.04;98790.91;5089320;28;8878;-76
2023/06/11 06:10:44;;;;;;;;;18.60;17.60;;;;;23.71;47.06;98791.75;5085253;28;8860;-75
2023/06/11 06:13:14;;;;;;;;;23.60;23.60;;;;;23.85;46.64;98785.19;5104146;27;9706;-77
2023/06/11 06:15:44;;;;;;;;;27.40;27.40;;;;;23.99;46.54;98791.16;5080551;28;8874;-75
2023/06/11 06:18:14;;;;;;;;;26.60;24.40;;;;;23.94;46.06;98799.59;5084067;28;8853;-75
2023/06/11 06:20:44;;;;;;;;;22.60;21.80;;;;;23.55;47.04;98802.13;5089574;28;9006;-75
2023/06/11 06:23:13;;;;;;;;;22.80;21.60;;;;;23.16;48.05;98800.03;5087776;28;8851;-74
2023/06/11 06:25:47;;;;;;;;;19.40;18.40;;;;;21.73;52.91;98802.84;5084456;28;9676;-75
2023/06/11 06:28:17;;;;;;;;;18.20;18.20;;;;;21.78;53.14;98806.84;5067565;28;8897;-75
2023/06/11 06:30:47;;;;;;;;;57.50;45.75;;;;;22.30;51.33;98804.53;5095398;28;8850;-74
2023/06/11 06:33:18;;;;;;;;;21.20;20.80;;;;;22.30;51.44;98804.53;5067131;28;8841;-76
2023/06/11 06:35:47;;;;;;;;;16.80;16.80;;;;;22.81;50.02;98808.38;5082707;28;8951;-77
2023/06/11 06:38:16;;;;;;;;;21.80;20.60;;;;;23.14;49.17;98811.88;5053926;28;8954;-75
2023/06/11 06:40:48;;;;;;;;;47.75;39.50;;;;;23.00;49.04;98807.69;5087096;28;8838;-74
2023/06/11 06:43:16;;;;;;;;;29.00;26.40;;;;;23.29;48.47;98815.09;5087230;28;8950;-75
2023/06/11 06:45:55;;;;;;;;;21.00;21.00;;;;;23.65;48.36;98812.91;5081659;28;9775;-77
2023/06/11 06:48:28;;;;;;;;;19.00;18.80;;;;;23.24;48.28;98810.09;5079744;28;8911;-75
2023/06/11 06:50:58;;;;;;;;;18.00;17.20;;;;;23.65;47.54;98810.22;5066428;28;8973;-73
2023/06/11 06:53:28;;;;;;;;;19.00;19.00;;;;;23.16;48.42;98823.31;5067178;28;8997;-71
2023/06/11 06:55:58;;;;;;;;;16.60;16.60;;;;;22.31;50.41;98824.94;5065746;28;9677;-72
2023/06/11 06:58:29;;;;;;;;;19.00;17.20;;;;;22.12;50.82;98817.53;5084570;28;9547;-72
2023/06/11 07:00:59;;;;;;;;;15.80;15.80;;;;;21.25;53.14;98818.06;5091566;28;8981;-72
2023/06/11 07:03:29;;;;;;;;;12.60;12.60;;;;;20.85;54.47;98815.75;5066746;28;8866;-73
2023/06/11 07:05:58;;;;;;;;;15.20;15.20;;;;;21.70;52.35;98811.13;5081868;28;8888;-72
2023/06/11 07:08:27;;;;;;;;;18.20;17.00;;;;;21.15;54.58;98803.72;5043835;28;9555;-74
2023/06/11 07:10:57;;;;;;;;;23.00;20.80;;;;;21.41;54.51;98799.03;5043826;28;9062;-72
2023/06/11 07:13:46;;;;;;;;;15.40;14.00;;;;;21.52;53.50;98808.91;5044079;28;8976;-74
2023/06/11 07:16:17;;;;;;;;;14.20;14.20;;;;;21.49;52.60;98810.97;5000283;28;8891;-75
2023/06/11 07:18:52;;;;;;;;;18.40;16.20;;;;;21.33;53.64;98805.94;5027268;28;8868;-73
2023/06/11 07:21:20;;;;;;;;;16.60;16.20;;;;;21.12;53.00;98813.81;5043745;28;8856;-74
2023/06/11 07:23:49;;;;;;;;;15.00;14.20;;;;;21.32;52.39;98810.44;5045412;28;8864;-74
2023/06/11 07:26:18;;;;;;;;;15.00;14.40;;;;;21.52;51.51;98806.22;5030554;28;8922;-75
2023/06/11 07:28:48;;;;;;;;;18.40;17.00;;;;;21.28;52.94;98811.66;5042049;28;8838;-73
2023/06/11 07:31:19;;;;;;;;;15.80;15.80;;;;;21.33;53.05;98808.63;5065231;28;8882;-72
2023/06/11 07:33:49;;;;;;;;;12.60;12.00;;;;;21.29;53.18;98802.66;5051090;28;8872;-73
2023/06/11 07:36:18;;;;;;;;;18.60;18.60;;;;;21.26;53.33;98806.44;5018273;28;8850;-73
2023/06/11 07:38:47;;;;;;;;;18.00;14.80;;;;;20.86;54.30;98804.09;5067522;28;9041;-73
2023/06/11 07:41:18;;;;;;;;;13.20;12.40;;;;;21.35;52.38;98804.00;5101886;28;8892;-74
2023/06/11 07:43:47;;;;;;;;;14.20;13.00;;;;;21.97;51.61;98803.56;5101852;28;8917;-75
2023/06/11 07:46:17;;;;;;;;;17.40;17.20;;;;;21.60;52.37;98801.16;5054460;28;8858;-72
2023/06/11 07:48:48;;;;;;;;;16.40;16.00;;;;;21.35;53.06;98804.88;5050813;28;8982;-74
2023/06/11 07:51:20;;;;;;;;;15.00;14.00;;;;;21.19;53.83;98810.53;5067954;28;8954;-73
2023/06/11 07:53:51;;;;;;;;;16.00;14.40;;;;;21.46;52.84;98804.00;5084581;28;9537;-73
2023/06/11 07:56:20;;;;;;;;;11.00;11.00;;;;;21.09;52.64;98803.34;5101343;28;9979;-73
2023/06/11 07:58:49;;;;;;;;;8.00;8.00;;;;;21.43;49.48;98810.47;5067162;28;8858;-75
2023/06/11 08:01:18;;;;;;;;;9.80;9.80;;;;;22.07;48.46;98803.69;5069927;28;8943;-71
2023/06/11 08:03:48;;;;;;;;;12.80;12.40;;;;;21.72;50.54;98806.50;5069425;28;8854;-73
2023/06/11 08:06:17;;;;;;;;;13.00;12.40;;;;;21.58;50.40;98799.56;5069167;28;9009;-71
2023/06/11 08:08:47;;;;;;;;;12.00;11.20;;;;;21.68;50.20;98805.91;5069091;28;9629;-74
2023/06/11 08:11:16;;;;;;;;;10.40;10.20;;;;;21.97;49.80;98806.22;5033610;28;8874;-73
2023/06/11 08:13:45;;;;;;;;;12.40;11.80;;;;;22.70;47.94;98808.41;5066529;28;9596;-73
2023/06/11 08:16:15;;;;;;;;;10.20;8.20;;;;;23.29;46.49;98809.72;5072699;28;8872;-71
2023/06/11 08:18:44;;;;;;;;;10.40;10.40;;;;;23.80;45.65;98800.81;5069046;28;8865;-73
2023/06/11 08:21:14;;;;;;;;;13.60;11.80;;;;;24.10;44.21;98794.56;5068874;28;8846;-74
2023/06/11 08:23:43;;;;;;;;;13.80;13.80;;;;;24.55;43.33;98793.28;5069181;28;8858;-73
2023/06/11 08:26:12;;;;;;;;;12.20;12.20;;;;;24.79;42.67;98800.06;5068544;28;9642;-73
2023/06/11 08:28:41;;;;;;;;;15.00;14.20;;;;;25.03;42.34;98794.28;5068510;28;8845;-72
2023/06/11 08:31:10;;;;;;;;;12.60;12.60;;;;;25.29;41.52;98802.56;5074153;28;8855;-72
2023/06/11 08:33:39;;;;;;;;;13.60;13.40;;;;;25.38;40.48;98798.19;5089018;28;8890;-73
2023/06/11 08:36:08;;;;;;;;;12.80;12.20;;;;;25.54;41.05;98802.97;5053318;28;8859;-73
2023/06/11 08:38:38;;;;;;;;;12.80;12.80;;;;;25.64;41.48;98811.84;5087017;28;8913;-73
2023/06/11 08:41:07;;;;;;;;;16.40;15.20;;;;;25.59;41.29;98806.91;5049662;28;9612;-73
2023/06/11 08:43:37;;;;;;;;;18.00;17.40;;;;;25.52;40.63;98806.63;5069193;28;8858;-72
2023/06/11 08:46:06;;;;;;;;;15.20;15.20;;;;;25.28;41.37;98807.13;5072013;28;9619;-73
2023/06/11 08:48:40;;;;;;;;;14.60;14.60;;;;;25.50;41.60;98805.09;5068670;28;8854;-75
2023/06/11 08:51:10;;;;;;;;;15.00;14.00;;;;;24.88;41.94;98804.59;5049223;28;8917;-72
2023/06/11 08:53:41;;;;;;;;;11.40;11.40;;;;;25.30;41.95;98797.06;5068535;28;8978;-73
2023/06/11 08:56:09;;;;;;;;;15.80;15.80;;;;;25.51;41.40;98798.72;5066820;28;8981;-73
2023/06/11 08:58:40;;;;;;;;;14.00;14.00;;;;;25.49;41.25;98798.00;5067960;28;8846;-74
2023/06/11 09:01:10;;;;;;;;;18.00;18.00;;;;;25.43;40.86;98801.28;5071421;28;8850;-74
2023/06/11 09:03:39;;;;;;;;;16.80;16.00;;;;;24.67;42.72;98813.63;5068142;28;8878;-74
2023/06/11 09:06:08;;;;;;;;;16.00;16.00;;;;;23.33;46.14;98814.69;5032565;28;8904;-70
2023/06/11 09:08:37;;;;;;;;;16.00;15.20;;;;;22.94;46.97;98809.06;5100250;28;9658;-74
2023/06/11 09:11:07;;;;;;;;;18.40;18.40;;;;;23.32;46.26;98814.84;5065596;28;9004;-73
2023/06/11 09:13:36;;;;;;;;;11.80;11.40;;;;;23.91;45.43;98810.63;5065339;28;8881;-73
2023/06/11 09:16:05;;;;;;;;;18.60;18.60;;;;;23.97;44.75;98805.53;5070105;28;8923;-73
2023/06/11 09:18:34;;;;;;;;;15.40;14.00;;;;;24.15;44.26;98807.63;5067850;28;8880;-75
2023/06/11 09:21:03;;;;;;;;;13.40;13.40;;;;;24.36;43.25;98812.91;5081773;28;8839;-75
2023/06/11 09:23:35;;;;;;;;;12.00;11.60;;;;;24.61;42.63;98802.59;5067570;28;8854;-73
2023/06/11 09:26:03;;;;;;;;;12.80;12.60;;;;;24.87;42.16;98806.47;5067314;28;8850;-73
2023/06/11 09:28:35;;;;;;;;;14.80;14.80;;;;;25.12;41.97;98817.63;5067843;28;8862;-71
2023/06/11 09:31:05;;;;;;;;;15.40;14.60;;;;;25.33;41.57;98803.16;5053440;28;8876;-73
2023/06/11 09:33:37;;;;;;;;;15.00;13.20;;;;;25.54;40.85;98805.66;5087757;28;8847;-72
2023/06/11 09:36:06;;;;;;;;;14.60;14.60;;;;;24.68;42.27;98799.22;5087651;28;8932;-73
2023/06/11 09:38:35;;;;;;;;;14.00;14.00;;;;;25.16;41.56;98794.81;5085675;28;8875;-71
2023/06/11 09:41:06;;;;;;;;;13.60;13.60;;;;;25.34;41.71;98786.88;5067795;28;10131;-73
2023/06/11 09:43:36;;;;;;;;;15.00;14.20;;;;;25.55;40.54;98784.00;5067799;28;8980;-72
2023/06/11 09:46:06;;;;;;;;;18.80;17.40;;;;;25.78;39.96;98783.63;5069251;28;8854;-73
2023/06/11 09:48:37;;;;;;;;;15.00;15.00;;;;;26.01;39.34;98779.53;5067146;28;8964;-71
2023/06/11 09:51:07;;;;;;;;;16.00;14.00;;;;;26.02;39.31;98775.00;5031864;28;9678;-74
2023/06/11 09:53:36;;;;;;;;;19.20;16.00;;;;;26.13;40.43;98790.13;5048659;28;8893;-74
2023/06/11 09:56:07;;;;;;;;;19.00;17.60;;;;;26.12;41.79;98801.91;5067339;28;8951;-72
2023/06/11 09:58:42;;;;;;;;;17.40;16.80;;;;;26.09;43.37;98803.88;5076183;28;8968;-73
2023/06/11 10:01:11;;;;;;;;;19.60;18.80;;;;;26.26;42.96;98809.47;5073079;28;8948;-75
2023/06/11 10:03:40;;;;;;;;;21.80;20.00;;;;;24.52;46.46;98807.81;5078152;28;8851;-73
2023/06/11 10:06:16;;;;;;;;;23.40;23.40;;;;;23.87;48.09;98806.50;5068294;28;8866;-74
2023/06/11 10:08:48;;;;;;;;;20.40;20.40;;;;;23.94;47.79;98802.28;5073886;28;8970;-74
2023/06/11 10:11:21;;;;;;;;;25.60;24.60;;;;;23.79;48.15;98799.16;5086545;28;9679;-73
2023/06/11 10:14:01;;;;;;;;;25.20;25.20;;;;;23.47;49.82;98796.53;5080076;28;8957;-72
2023/06/11 10:16:32;;;;;;;;;29.80;29.40;;;;;24.08;48.18;98791.16;5086727;28;8925;-72
2023/06/11 10:19:07;;;;;;;;;27.60;25.60;;;;;24.57;48.04;98787.75;5080285;28;8842;-71
2023/06/11 10:21:40;;;;;;;;;20.80;20.80;;;;;24.52;46.25;98785.47;5040523;28;8886;-76
2023/06/11 10:24:20;;;;;;;;;23.80;22.20;;;;;24.73;45.79;98796.13;5086049;28;8878;-72
2023/06/11 10:27:04;;;;;;;;;25.00;24.00;;;;;24.65;47.51;98801.34;5081959;28;9006;-72
2023/06/11 10:29:39;;;;;;;;;27.20;26.60;;;;;24.93;46.56;98807.72;5086789;28;8885;-72
2023/06/11 10:32:18;;;;;;;;;26.60;25.60;;;;;25.35;45.56;98806.56;5074680;28;9629;-76
2023/06/11 10:34:49;;;;;;;;;14.00;14.00;;;;;24.17;47.94;98813.72;5086545;28;8960;-74
2023/06/11 10:37:27;;;;;;;;;24.00;23.20;;;;;23.79;48.66;98812.56;5086918;28;8860;-76
2023/06/11 10:39:56;;;;;;;;;20.60;20.60;;;;;24.13;47.82;98802.41;5072918;28;8860;-75
2023/06/11 10:42:27;;;;;;;;;19.20;19.20;;;;;24.23;47.97;98796.19;5079126;28;8863;-74
2023/06/11 10:44:59;;;;;;;;;21.80;21.20;;;;;24.75;45.49;98796.81;5090971;28;8865;-74
2023/06/11 10:47:30;;;;;;;;;20.00;19.40;;;;;24.80;45.43;98785.66;5086123;28;8940;-76
2023/06/11 10:50:07;;;;;;;;;19.20;19.20;;;;;24.66;45.30;98792.25;5086377;28;8871;-75
2023/06/11 10:52:48;;;;;;;;;21.40;21.40;;;;;23.97;48.05;98789.44;5071976;28;8854;-76
2023/06/11 10:55:18;;;;;;;;;18.20;17.60;;;;;23.73;48.80;98796.97;5084498;28;8928;-76
2023/06/11 10:57:47;;;;;;;;;19.80;19.80;;;;;23.58;49.73;98789.31;5078269;28;8875;-74
2023/06/11 11:00:18;;;;;;;;;20.40;20.20;;;;;23.74;48.71;98791.47;5085255;28;8884;-76
2023/06/11 11:02:49;;;;;;;;;21.00;20.00;;;;;23.56;49.37;98780.56;5088563;28;8928;-77
2023/06/11 11:05:18;;;;;;;;;18.00;17.20;;;;;23.30;49.31;98785.47;5088525;28;8890;-75
2023/06/11 11:07:47;;;;;;;;;19.40;19.40;;;;;23.49;49.06;98771.31;5034872;28;8904;-75
2023/06/11 11:10:18;;;;;;;;;20.40;18.80;;;;;23.29;50.27;98775.69;5102199;28;8877;-77
2023/06/11 11:12:49;;;;;;;;;18.40;17.60;;;;;23.46;50.78;98768.88;5089157;28;8941;-74
2023/06/11 11:15:20;;;;;;;;;18.80;18.20;;;;;23.16;50.34;98769.69;5084730;28;8855;-76
2023/06/11 11:17:49;;;;;;;;;20.40;20.40;;;;;22.84;51.25;98767.06;5072211;28;8863;-75
2023/06/11 11:20:20;;;;;;;;;14.80;14.20;;;;;23.25;50.62;98758.19;5073307;28;8903;-74
2023/06/11 11:22:51;;;;;;;;;25.60;25.20;;;;;22.91;50.54;98758.41;5083513;28;9561;-74
2023/06/11 11:25:22;;;;;;;;;20.40;19.40;;;;;23.89;48.73;98753.56;5084706;28;8944;-79
2023/06/11 11:27:51;;;;;;;;;21.40;21.40;;;;;24.01;47.43;98756.97;5083416;28;8847;-75
2023/06/11 11:30:21;;;;;;;;;22.00;21.00;;;;;23.87;48.88;98755.53;5068614;28;8848;-75
2023/06/11 11:32:50;;;;;;;;;27.20;24.80;;;;;24.45;46.59;98754.78;5073340;28;8874;-71
2023/06/11 11:35:22;;;;;;;;;18.40;18.40;;;;;25.06;44.73;98750.97;5082329;28;8862;-74
2023/06/11 11:37:51;;;;;;;;;20.60;20.00;;;;;25.27;44.39;98756.16;5074864;28;8858;-73
2023/06/11 11:40:21;;;;;;;;;20.80;20.00;;;;;25.70;43.80;98739.44;5026862;28;8863;-74